Aérodrome :
LOGIN :

S'inscrire | Disclaimer

   EN    FR    IT 

 










Légende :    VFR   VFR Marginal   IFR   IFR Intensif   IFR Très Intensif
Visi : 
Plafond : 
>= 8 km
>= 3000ft
5 à 8 km
1000 à 3000 ft
1500m à 5 km
500 à 1000 ft
800 à 1500m
200 à 500 ft
< 800m
< 200 ft
Symboles :   Orages  Brouillard  Fortes neiges  Fortes précipitations  Vent > 20 kt
SIGMETs :   Divers  Orages  Givrage  Turbulence  Onde Orograph.  Cendres Volcan.






- Altitude de l'aérodrome : 33 ft
- Code IATA : MHZ


EGUN - RAF Mildenhall

DERNIER METAR :
  • 230955Z 25011KT 9999 BKN024 14/09 A2987 RMK AO2A SLP118 T01350085 $

METARs EXPIRÉS :
  • 230855Z 26011KT 9999 OVC023 14/09 A2986 RMK AO2A SLP115 T01380092 52016 $
  • 230805Z 25010KT 9999 OVC024 13/09 A2984 RMK AO2A SLP108 $
  • 230755Z 25013G20KT 9999 OVC022 13/09 A2984 RMK AO2A SLP108 T01300089 $
  • 230735Z 25015KT 9999 OVC024 14/09 A2983 RMK AO2A SLP105 $
  • 230705Z 26011KT 9999 OVC021 13/10 A2983 RMK AO2A SLP105 $
  • 230655Z 25010KT 9999 BKN019 OVC025 13/10 A2983 RMK AO2A SLP105 T01320100 $
  • 230635Z 25011KT 9999 BKN019 OVC026 13/10 A2982 RMK AO2A SLP101 $
  • 230555Z 25013KT 9999 OVC021 13/11 A2982 RMK AO2A SLP101 T01310105 10137 20117 52012 $

TAF AMD TAF EGUN
Valide du 23 à 06h jusqu'au 24 à 10h UTC


230655Z 2306/2410 24012KT 9999 BKN019 OVC060 600753 QNH2977INS
BECMG 2307/2309 25012G22KT 9999 BKN025 BKN110 510003 QNH2982INS
BECMG 2317/2318 25012KT 9999 BKN030 QNH2987INS
BECMG 2323/2324 23008KT 9999 SCT030 QNH2995INS
BECMG 2403/2404 22008KT 9999 BKN025 QNH2996INS
BECMG 2408/2409 23012KT 9999 BKN040 QNH3002INS TX18/2315Z TN07/2404Z



MET'MAP, la Météo Aéronautique d'un coup d'oeil ! - Copyright ORBIFLY Décembre 2007 - Disclaimer

ORBIFLY MET'MAP TEAM :

Programmation & Développement : Alexandra Zaïnal
Sur une idée originale de : Baudouin d'Aumeries
Soutien technique & logistique : Manuel Goepfert
Assistance : Marc-Olivier Méhu




SOURCES & CREDITS :

   NOAA